TAF KELM
AMD KELM 280659Z 2807/2906 00000KT 3SM -SN BR OVC025 TEMPO 2807/2810 1SM -SN BR OVC009 FM281300 VRB03KT 5SM -SHSN BR OVC010 FM281600 24005KT P6SM OVC015 FM282300 VRB03KT 5SM -SHSN BR OVC021=
METAR KELM
WC KELM
WS KELM
WV KELM